Airfield :
LOGIN :

Register | Disclaimer

   EN    FR    IT 

 










Legend :    VFR   Marginal VFR   IFR   Intensive IFR   Very Intensive IFR
Visi :
Ceiling :
>= 8 km
>= 3000ft
5 to 8 km
1000 to 3000 ft
1500m to 5 km
500 to 1000 ft
800 to 1500m
200 to 500 ft
< 800m
< 200 ft
Symbols :   Thunderstorms  Fog  Heavy snow  Heavy precipitations  Wind > 20 kt
SIGMETs :     Misc.  Thunderstorms  Icing  Turbulence  Mountain Waves  Volcanic Ashes






- Airport Elevation : 157 ft
- IATA code : LIL


LFQQ - Lille Lesquin

CURRENT METAR :
  • 210500Z AUTO VRB02KT 0300 0250 R26/0375N R08/0350N FZFG VV/// M02/M02 Q1042 NOSIG

EXPIRED METARs :
  • 210430Z AUTO VRB01KT 0300 0250 R26/0400N R08/0325N FZFG VV/// M02/M02 Q1042 NOSIG
  • 210400Z AUTO 04001KT 0350 0250 R26/0500N R08/0400N FZFG VV/// M01/M01 Q1042 NOSIG
  • 210330Z AUTO 07002KT 0450 0400 R26/0600N R08/0550N FZFG VV/// M01/M01 Q1043 BECMG 0300 FZFG
  • 210300Z AUTO VRB02KT 0450 0300 R26/0375N R08/0550N FZFG VV/// M01/M01 Q1043 BECMG 0300 FZFG
  • 210230Z AUTO 03002KT 0300 0250 R26/0300N R08/0375N FZFG VV/// M00/M00 Q1043 NOSIG

TAF TAF LFQQ
Valid from the 21 at 00:00 until the 22 at 06:00 UTC


202300Z 2100/2206 VRB02KT 0300 FG VV///
BECMG 2102/2104 FZFG
BECMG 2107/2110 4000 BR OVC002
BECMG 2110/2113 CAVOK
BECMG 2120/2123 1500 BR OVC002
TEMPO 2123/2206 0300 DZ FG VV///
ATIS : +33 3 20 16 19 54



MET'MAP, your aeronautical weather chart ! - Copyright ORBIFLY December 2007 - Disclaimer

ORBIFLY MET'MAP TEAM :

Programming & Development : Alexandra Zaïnal
Concept & original design : Baudouin d'Aumeries
Assistance for programming : Marc-Olivier Méhu
Technical & hardware support : Manuel Goepfert

Contact : metmap@orbifly.com




SOURCES & CREDITS :

   NOAA